METAR Data
IDs: Format: Raw Decoded Include TAF

Data at: 2345 UTC 29 May 2020

KMLB 292253Z 14011KT 10SM CLR 28/24 A3001 RMK AO2 LTG DSNT SW SLP163 T02780244

KMLB 292321Z 3000/3024 15010KT P6SM VCSH SCT025 SCT150 BKN250
  FM300400 18003KT P6SM FEW040 SCT250
  FM301400 19010KT P6SM SCT025
  FM301630 13012KT P6SM SCT025 SCT035
  FM301800 13012KT P6SM VCTS SCT040CB SCT070


KTIX 292247Z 13006KT 7SM SCT070 30/24 A3002

KTIX 292321Z 3000/3024 15006KT P6SM VCSH SCT025 SCT070 SCT150
  TEMPO 3002/3004 5SM SHRA BKN035 BKN050
  FM300500 18003KT P6SM FEW040 SCT250
  FM301400 21008KT P6SM SCT025
  FM301800 17008KT P6SM VCTS SCT040CB SCT070 AMD NOT SKED 3001/3011


KCOF 292256Z AUTO 14010KT 10SM CLR 28/24 A3002 RMK AO2 SLP170 T02800240 $

TAF KCOF 291807Z 2918/3024 12009KT 9999 FEW020 SCT150 QNH3002INS
  TEMPO 2918/3003 28015G25KT 4800 -TSRA BKN020CB BKN100
  BECMG 3002/3003 VRB06KT 9999 BKN020 QNH3003INS
  BECMG 3012/3013 12009KT 9999 FEW030 FEW150 SCT200 QNH2997INS
  TEMPO 3019/3024 VRB15G25KT 8000 -TSRA BKN030CB BKN140 TX31/2919Z TN23/3003Z


KVRB 292253Z 13013KT 10SM CLR 28/23 A3002 RMK AO2 LTG DSNT W SLP164 T02830233

KVRB 292321Z 3000/3024 15011KT P6SM SCT030 SCT150 SCT250
  FM300400 16004KT P6SM FEW040 SCT250
  FM301400 17009KT P6SM SCT025
  FM301630 13012KT P6SM SCT025 SCT035
  FM301800 13015KT P6SM VCTS SCT040CB SCT070